Ambito dei contenuti

METAR / TAF

La lista dei METAR e dei TAF non è pensata per essere utilizzata per i briefing meteorologici (in particolare per ragioni tecniche non è possibile garantire la sua costante disponibilità e un aggiornamento continuo). Per i briefing meteorologici si consiglia di utilizzare lo skybriefing di Skyguide oppure il TAMSI (piattaforma  di MeteoSvizzera per l’autobriefing per i professionisti dell’aviazione – per informazioni utilizzare il formulario di contatto).

 

METAR Svizzera

METAR     LFSB 141700Z 17008KT 9999 FEW035 FEW040CB SCT046 BKN080
               13/08 Q1010 RETS NOSIG=
METAR     LSGC 141650Z 22006KT 180V250 9999 FEW013 BKN049 07/05
               Q1011=
METAR     LSGC 141720Z 23005KT 190V260 9999 FEW015 BKN019 08/04
               Q1011=
METAR     LSGG 141650Z 20006KT 9999 FEW045 BKN060 14/03 Q1012 NOSIG=
METAR     LSGG 141720Z 24003KT 220V300 9999 FEW045 BKN060 14/02 Q1012
               NOSIG=
METAR     LSGS 141650Z 25013KT 9999 SCT070 SCT100 14/03 Q1010=
METAR     LSGS 141720Z 25010KT 200V280 9999 SCT080 15/03 Q1010=
METAR RRA LSMA 141650Z AUTO VRB03KT 9999NDV -RA BKN053 OVC073 12/06
               Q1011 RMK=
METAR RRA LSMA 141720Z AUTO 21007KT 180V260 9999NDV -SHRA OVC050
               11/06 Q1012 RMK=
METAR RRA LSMD 141650Z AUTO 29009KT 260V330 9999NDV FEW088 SCT110
               12/06 Q1010 RMK=
METAR RRA LSMD 141720Z AUTO 28009KT 240V340 9999NDV BKN061 BKN070
               12/05 Q1010 RMK=
METAR RRA LSME 141650Z AUTO 27008KT 240V300 9999NDV FEW035 BKN066
               OVC110 13/05 Q1011 RMK=
METAR RRA LSME 141720Z AUTO 23012KT 9999NDV BKN063 BKN075 12/04 Q1012
               RMK=
METAR RRA LSMM 141650Z AUTO 30013KT 250V340 9999NDV OVC039 10/06
               Q1012 RMK=
METAR RRA LSMM 141720Z AUTO 28011KT 240V340 9999NDV -SHRA BKN040
               OVC049 10/05 Q1012 RMK=
METAR RRA LSMP 141650Z AUTO 23010KT 9999NDV FEW051 SCT063 BKN072
               13/05 Q1012 RMK=
METAR RRA LSMP 141720Z AUTO 24008KT 9999NDV FEW057 BKN076 13/04 Q1012
               RMK=
METAR     LSZA 141650Z AUTO VRB03KT 9999 FEW060TCU BKN070 BKN080
               14/06 Q1009=
METAR     LSZA 141720Z AUTO VRB04KT 9999 -RA FEW075 BKN085 BKN095
               13/08 Q1009=
METAR     LSZB 141650Z 07003KT 020V170 9999 -RA SCT041 BKN060 10/09
               Q1012 NOSIG=
METAR     LSZB 141720Z 11004KT 9999 FEW020 SCT045 BKN060 10/09 Q1012
               NOSIG=
METAR     LSZC 141650Z AUTO 26004KT 170V340 9999 SCT043 BKN055 13/05
               Q1011=
METAR     LSZC 141720Z AUTO 10003KT 9999 SCT044 BKN050 12/04 Q1012=
METAR     LSZG 141650Z 19007KT 9999 FEW033 SCT050 13/06 Q1011 NOSIG=
METAR     LSZG 141720Z 25008KT 9999 FEW030 SCT038 BKN045 13/06 Q1011
               NOSIG=
METAR     LSZH 141650Z 28008KT 9999 VCSH SCT060TCU 12/07 Q1010 TEMPO
               SHRA=
METAR     LSZH 141720Z 27008KT 240V300 9999 VCSH SCT055 12/06 Q1010
               TEMPO SHRA=
METAR RRA LSZL 141650Z AUTO 29007KT 230V350 9999NDV FEW084 16/07
               Q1007 RMK=
METAR RRA LSZL 141720Z AUTO 12008KT 050V150 9999NDV NCD 16/06 Q1008
               RMK=
METAR     LSZR 141650Z 26004KT 9999 VCTS FEW040 SCT060CB 15/03 Q1008
               NOSIG RMK N=
METAR     LSZR 141720Z 26004KT 9999 VCTS FEW040 SCT060CB 14/06 Q1009
               NOSIG RMK N=
METAR     LSZS 141650Z 17010KT 9999 BKN050 06/M00 Q1008 RMK V TL180=
METAR     LSZS 141720Z AUTO 17010KT 9999 FEW050 OVC065 06/M00 Q1009=
aggiornamento venerdì 14 maggio 2021 ore 19:50

TAF Svizzera

TAF RRA LFSB 141100Z 1412/1512 28008KT 9999 SCT050 TEMPO 1412/1418
             4000 SHRA FEW040CB PROB40 TEMPO 1412/1415 28015G25KT
             2000 TSRA TEMPO 1418/1421 -SHRA FEW040TCU TEMPO
             1509/1512 RA FEW040TCU=
TAF     LSGC 141425Z 1415/1424 24007KT 9999 FEW015 BKN025 PROB30
             TEMPO 1415/1424 SHRA BKN012 SCT030TCU=
TAF     LSGG 141425Z 1415/1521 25007KT 9999 SCT050 TX14/1415Z
             TN06/1505Z TX13/1515Z TEMPO 1513/1519 RA=
TAF     LSGS 141425Z 1415/1424 24016KT 9999 SCT070 BKN110 BECMG
             1416/1419 24005KT=
TAF     LSMA 140925Z 1410/1516 34004KT 9999 FEW050 BECMG 1410/1412
             SCT060TCU TEMPO 1411/1421 SHRA TEMPO 1411/1414 04010KT
             PROB40 TEMPO 1413/1420 22015G25KT 3000 TSRA FEW050CB
             BECMG 1419/1421 VRB02KT BECMG 1509/1513 4500 RA FEW015
             BKN030 TEMPO 1509/1516 04012KT=
TAF AAC LSMA 141212Z 1412/1516 07007KT 9999 FEW050 BECMG 1412/1414
             SCT060TCU TEMPO 1412/1421 SHRA PROB40 TEMPO 1413/1420
             22015G25KT 3000 TSRA FEW050CB BECMG 1419/1421 VRB02KT
             BECMG 1509/1513 4500 RA FEW015 BKN030 TEMPO 1509/1516
             04012KT=
TAF     LSMD 140925Z 1410/1516 VRB02KT 9999 FEW030 BECMG 1410/1412
             SCT050TCU TEMPO 1411/1422 04010KT SHRA BECMG 1411/1414
             28010KT PROB30 TEMPO 1413/1419 28015G25KT 3000 TSRA
             FEW050CB BECMG 1417/1419 VRB02KT TEMPO 1500/1509 CAVOK
             BECMG 1509/1513 9999 RA FEW030 BKN040 TEMPO 1510/1516
             25010KT=
TAF AAB LSMD 141206Z 1412/1516 VRB02KT 9999 SCT050 TEMPO 1413/1422
             SHRA SCT050TCU BECMG 1413/1414 28010KT PROB30 TEMPO
             1413/1419 28015G25KT 3000 TSRA FEW050CB BECMG 1417/1419
             VRB02KT TEMPO 1500/1509 CAVOK BECMG 1509/1513 9999 RA
             FEW030 BKN040 TEMPO 1510/1516 25010KT=
TAF     LSME 140925Z 1410/1516 VRB02KT 9999 FEW030 BECMG 1410/1412
             SCT050TCU TEMPO 1411/1421 SHRA BECMG 1411/1414 28010KT
             PROB30 TEMPO 1413/1419 28015G25KT 3000 TSRA FEW050CB
             BECMG 1417/1419 VRB02KT TEMPO 1500/1509 CAVOK BECMG
             1509/1513 9999 RA FEW030 BKN040 TEMPO 1510/1516 25012KT=
TAF AAD LSME 141214Z 1412/1516 VRB02KT 9999 FEW030 BECMG 1412/1414
             SCT050TCU TEMPO 1412/1421 28010KT SHRA PROB30 TEMPO
             1413/1419 28015G25KT 3000 TSRA FEW050CB BECMG 1417/1419
             VRB02KT TEMPO 1500/1509 CAVOK BECMG 1509/1513 9999 RA
             FEW030 BKN040 TEMPO 1510/1516 25012KT=
TAF     LSMM 140925Z 1410/1516 VRB02KT 9999 FEW060 BECMG 1410/1412
             SCT070TCU TEMPO 1411/1421 SHRA BECMG 1411/1413 28010KT
             PROB40 TEMPO 1413/1420 28015G25KT 3000 TSRA FEW050CB
             BECMG 1419/1421 VRB02KT BECMG 1509/1513 4500 RA FEW015
             BKN030 TEMPO 1510/1516 28012KT=
TAF AAA LSMM 141130Z 1411/1516 VRB02KT 9999 FEW090 TEMPO 1411/1421
             SHRA SCT070TCU BECMG 1412/1413 28010KT PROB40 TEMPO
             1413/1420 28015G25KT 3000 TSRA FEW050CB BECMG 1419/1421
             VRB02KT BECMG 1509/1513 4500 RA FEW015 BKN030 TEMPO
             1510/1516 28012KT=
TAF     LSMP 140925Z 1410/1516 23006KT 9999 SCT035 PROB30 TEMPO
             1413/1419 SHRA SCT035TCU BECMG 1509/1512 RA BKN025=
TAF     LSZA 141425Z 1415/1424 25006KT 9999 SHRA SCT055 BKN065 TEMPO
             1415/1422 SHRA SCT055TCU PROB40 TEMPO 1415/1420 TSRA
             SCT055CB BECMG 1422/1424 CAVOK=
TAF     LSZB 141425Z 1415/1424 32006KT 9999 SCT055 BKN085 TEMPO
             1415/1423 SHRA SCT060TCU PROB30 TEMPO 1415/1418
             29015G30KT TSRA FEW055CB=
TAF     LSZC 141425Z 1415/1424 25005KT 9999 SCT100 TEMPO 1415/1421
             SHRA PROB40 TEMPO 1415/1419 27015G25KT 3000 TSRA
             SCT050CB=
TAF     LSZG 141425Z 1415/1424 25010G20KT 9999 -SHRA FEW028 SCT040TCU
             BKN060 TEMPO 1415/1418 SHRA PROB40 TEMPO 1415/1417 3000
             TSRA SCT050CB=
TAF     LSZH 141425Z 1415/1521 31006KT 9999 FEW065 TX17/1415Z
             TN06/1504Z TX14/1512Z TEMPO 1415/1421 SHRA FEW065TCU
             PROB30 TEMPO 1415/1419 30015G25KT 3000 TSRA FEW050CB
             BECMG 1417/1419 VRB02KT TEMPO 1500/1509 CAVOK PROB30
             TEMPO 1501/1506 9999 SHRA BECMG 1511/1514 24010KT 9999
             RA PROB30 TEMPO 1511/1518 24012G25KT=
TAF     LSZL 141125Z 1412/1421 26005KT 9999 FEW070 BECMG 1412/1415
             SHRA FEW070TCU PROB30 1413/1418 22015G25KT 4000 TSRA
             SCT050CB=
TAF     LSZR 141425Z 1415/1424 34006KT 9999 FEW045 SCT100 TEMPO
             1415/1424 SHRA FEW045TCU PROB30 TEMPO 1417/1423
             29012G27KT TSRA SCT045CB=
TAF RRA LSZS 141425Z 1415/1424 35008KT 9999 BKN050 TX10/1415Z TEMPO
             1415/1422 SHRA SCT050TCU PROB30 TEMPO 1416/1418 4000
             TSRA SCT040CB=
aggiornamento venerdì 14 maggio 2021 ore 18:02